パリ/シャルル・ド・ゴール の空港の天気 - METARとTAF

シャルル・ド・ゴール国際空港(パリ) ( LFPG / CDG ) - フランス Paris
飛行場実況気象(Metar)
観測時間03/30 14:30 CEST (03/30 12:30 UTC)
風向・風速南南東 6m/s
視程10km以上
天気現象
なし
気温22℃
湿度38%
気圧1022hPa
METARLFPG 301230Z 15012KT 110V180 CAVOK 22/07 Q1022 NOSIG
過去の天気等 Google飛行場航空写真 Wunderground天気予報

過去48時間のMETAR

飛行場予報(TAF)
発表時間: 3/30 13:00 CEST (3/30 11:00 UTC)
予報対象時間: 30日14時 CEST ~ 31日20時 CEST
風向・風速南南東 5m/s
視程10km以上
なし
31日9時 CEST ~ 31日12時 CEST に徐々に
風向・風速南南西 5m/s
31日12時 CEST ~ 31日17時 CEST に 確率 40% で一時的に
全天の4割程度の塔状積雲 雲底高度 910m
31日18時 CEST ~ 31日20時 CEST に一時的に
天気現象しゅう雨
全天の8割程度の塔状積雲 雲底高度 1,220m
31日18時 CEST ~ 31日19時 CEST に 確率 30% で一時的に
風向・風速南西 8m/s 瞬間風速 13m/s
視程4,000m
天気現象弱い雷雨
全天の4割程度の積乱雲 雲底高度 610m
TAF LFPG 301100Z 3012/3118 15010KT CAVOK
BECMG 3107/3110 21010KT
PROB40 TEMPO 3110/3115 SCT030TCU
TEMPO 3116/3118 SHRA BKN040TCU
PROB30 TEMPO 3116/3117 22015G25KT 4000 -TSRA SCT020CB TX24/3015Z TN12/3105Z